sensor_id;sensor_type;location;lat;lon;timestamp;P1;durP1;ratioP1;P2;durP2;ratioP2
38499;SDS011;24269;51.894;4.622;2022-10-17T00:02:24;13.10;;;8.93;;
38499;SDS011;24269;51.894;4.622;2022-10-17T00:04:50;13.55;;;9.63;;
38499;SDS011;24269;51.894;4.622;2022-10-17T00:07:15;13.45;;;9.43;;
38499;SDS011;24269;51.894;4.622;2022-10-17T00:09:42;12.77;;;9.57;;
38499;SDS011;24269;51.894;4.622;2022-10-17T00:12:08;12.77;;;10.07;;
38499;SDS011;24269;51.894;4.622;2022-10-17T00:14:33;14.50;;;9.35;;
38499;SDS011;24269;51.894;4.622;2022-10-17T00:16:59;15.00;;;10.13;;
38499;SDS011;24269;51.894;4.622;2022-10-17T00:19:25;12.98;;;9.88;;
38499;SDS011;24269;51.894;4.622;2022-10-17T00:21:50;14.20;;;10.50;;
38499;SDS011;24269;51.894;4.622;2022-10-17T00:24:16;16.75;;;11.43;;
38499;SDS011;24269;51.894;4.622;2022-10-17T00:26:41;16.05;;;10.85;;
38499;SDS011;24269;51.894;4.622;2022-10-17T00:29:07;14.80;;;11.73;;
38499;SDS011;24269;51.894;4.622;2022-10-17T00:31:33;20.30;;;11.75;;
38499;SDS011;24269;51.894;4.622;2022-10-17T00:33:59;15.00;;;11.45;;
38499;SDS011;24269;51.894;4.622;2022-10-17T00:36:25;13.60;;;11.57;;
38499;SDS011;24269;51.894;4.622;2022-10-17T00:38:53;14.50;;;10.43;;
38499;SDS011;24269;51.894;4.622;2022-10-17T00:41:22;17.98;;;10.93;;
38499;SDS011;24269;51.894;4.622;2022-10-17T00:43:55;19.02;;;12.52;;
38499;SDS011;24269;51.894;4.622;2022-10-17T00:46:27;17.73;;;12.63;;
38499;SDS011;24269;51.894;4.622;2022-10-17T00:48:54;18.58;;;12.98;;
38499;SDS011;24269;51.894;4.622;2022-10-17T00:51:25;19.52;;;13.60;;
38499;SDS011;24269;51.894;4.622;2022-10-17T00:53:56;17.48;;;13.18;;
38499;SDS011;24269;51.894;4.622;2022-10-17T00:56:23;18.52;;;13.02;;
38499;SDS011;24269;51.894;4.622;2022-10-17T00:58:48;20.73;;;14.10;;
38499;SDS011;24269;51.894;4.622;2022-10-17T01:01:14;19.17;;;13.88;;
38499;SDS011;24269;51.894;4.622;2022-10-17T01:03:40;19.10;;;13.95;;
38499;SDS011;24269;51.894;4.622;2022-10-17T01:06:06;19.17;;;13.57;;
38499;SDS011;24269;51.894;4.622;2022-10-17T01:08:31;19.00;;;13.43;;
38499;SDS011;24269;51.894;4.622;2022-10-17T01:11:42;19.85;;;13.23;;
38499;SDS011;24269;51.894;4.622;2022-10-17T01:15:10;16.77;;;12.52;;
38499;SDS011;24269;51.894;4.622;2022-10-17T01:17:12;18.00;;;13.05;;
38499;SDS011;24269;51.894;4.622;2022-10-17T01:20:23;18.00;;;13.45;;
38499;SDS011;24269;51.894;4.622;2022-10-17T01:22:36;18.42;;;13.55;;
38499;SDS011;24269;51.894;4.622;2022-10-17T01:25:16;17.50;;;13.05;;
38499;SDS011;24269;51.894;4.622;2022-10-17T01:27:58;17.30;;;13.23;;
38499;SDS011;24269;51.894;4.622;2022-10-17T01:30:52;20.73;;;14.57;;
38499;SDS011;24269;51.894;4.622;2022-10-17T01:36:14;23.55;;;15.23;;
38499;SDS011;24269;51.894;4.622;2022-10-17T01:38:53;19.30;;;14.18;;
38499;SDS011;24269;51.894;4.622;2022-10-17T01:41:59;20.33;;;14.93;;
38499;SDS011;24269;51.894;4.622;2022-10-17T01:44:32;18.67;;;15.50;;
38499;SDS011;24269;51.894;4.622;2022-10-17T01:47:16;19.67;;;15.60;;
38499;SDS011;24269;51.894;4.622;2022-10-17T01:49:44;20.35;;;15.27;;
38499;SDS011;24269;51.894;4.622;2022-10-17T01:52:14;21.30;;;15.52;;
38499;SDS011;24269;51.894;4.622;2022-10-17T01:55:26;17.25;;;14.75;;
38499;SDS011;24269;51.894;4.622;2022-10-17T01:57:37;19.08;;;15.15;;
38499;SDS011;24269;51.894;4.622;2022-10-17T02:00:07;20.65;;;15.07;;
38499;SDS011;24269;51.894;4.622;2022-10-17T02:02:39;23.20;;;15.40;;
38499;SDS011;24269;51.894;4.622;2022-10-17T02:05:08;19.55;;;15.10;;
38499;SDS011;24269;51.894;4.622;2022-10-17T02:07:34;21.25;;;15.68;;
38499;SDS011;24269;51.894;4.622;2022-10-17T02:09:59;21.25;;;16.27;;
38499;SDS011;24269;51.894;4.622;2022-10-17T02:25:38;23.38;;;17.02;;
38499;SDS011;24269;51.894;4.622;2022-10-17T02:31:14;20.52;;;15.65;;
38499;SDS011;24269;51.894;4.622;2022-10-17T02:33:57;21.05;;;15.82;;
38499;SDS011;24269;51.894;4.622;2022-10-17T02:38:56;25.08;;;15.75;;
38499;SDS011;24269;51.894;4.622;2022-10-17T02:41:23;20.25;;;14.98;;
38499;SDS011;24269;51.894;4.622;2022-10-17T02:43:49;18.35;;;14.52;;
38499;SDS011;24269;51.894;4.622;2022-10-17T02:46:18;21.73;;;14.52;;
38499;SDS011;24269;51.894;4.622;2022-10-17T02:48:47;18.63;;;14.32;;
38499;SDS011;24269;51.894;4.622;2022-10-17T02:54:09;18.85;;;13.00;;
38499;SDS011;24269;51.894;4.622;2022-10-17T02:56:50;19.23;;;13.05;;
38499;SDS011;24269;51.894;4.622;2022-10-17T02:59:19;17.90;;;13.40;;
38499;SDS011;24269;51.894;4.622;2022-10-17T03:01:47;19.27;;;13.57;;
38499;SDS011;24269;51.894;4.622;2022-10-17T03:04:15;17.92;;;13.13;;
38499;SDS011;24269;51.894;4.622;2022-10-17T03:06:42;18.83;;;13.05;;
38499;SDS011;24269;51.894;4.622;2022-10-17T03:09:10;23.73;;;13.85;;
38499;SDS011;24269;51.894;4.622;2022-10-17T03:11:36;17.30;;;12.70;;
38499;SDS011;24269;51.894;4.622;2022-10-17T03:14:02;21.55;;;13.00;;
38499;SDS011;24269;51.894;4.622;2022-10-17T03:16:27;18.55;;;12.40;;
38499;SDS011;24269;51.894;4.622;2022-10-17T03:18:53;16.80;;;12.23;;
38499;SDS011;24269;51.894;4.622;2022-10-17T03:21:19;17.13;;;12.23;;
38499;SDS011;24269;51.894;4.622;2022-10-17T03:23:44;18.38;;;12.55;;
38499;SDS011;24269;51.894;4.622;2022-10-17T03:26:10;15.35;;;11.63;;
38499;SDS011;24269;51.894;4.622;2022-10-17T03:28:36;17.48;;;12.00;;
38499;SDS011;24269;51.894;4.622;2022-10-17T03:31:05;18.00;;;12.82;;
38499;SDS011;24269;51.894;4.622;2022-10-17T03:33:32;16.27;;;11.82;;
38499;SDS011;24269;51.894;4.622;2022-10-17T03:35:58;17.23;;;11.38;;
38499;SDS011;24269;51.894;4.622;2022-10-17T03:38:23;14.38;;;10.95;;
38499;SDS011;24269;51.894;4.622;2022-10-17T03:40:55;20.63;;;11.82;;
38499;SDS011;24269;51.894;4.622;2022-10-17T03:43:20;18.13;;;11.60;;
38499;SDS011;24269;51.894;4.622;2022-10-17T03:45:46;14.85;;;11.23;;
38499;SDS011;24269;51.894;4.622;2022-10-17T03:48:11;16.05;;;11.65;;
38499;SDS011;24269;51.894;4.622;2022-10-17T03:50:37;16.13;;;11.25;;
38499;SDS011;24269;51.894;4.622;2022-10-17T03:53:03;15.52;;;11.73;;
38499;SDS011;24269;51.894;4.622;2022-10-17T03:55:28;18.00;;;11.93;;
38499;SDS011;24269;51.894;4.622;2022-10-17T03:57:54;16.77;;;11.90;;
38499;SDS011;24269;51.894;4.622;2022-10-17T04:00:19;16.25;;;11.93;;
38499;SDS011;24269;51.894;4.622;2022-10-17T04:02:45;14.52;;;11.35;;
38499;SDS011;24269;51.894;4.622;2022-10-17T04:05:10;16.17;;;11.25;;
38499;SDS011;24269;51.894;4.622;2022-10-17T04:07:36;17.33;;;11.68;;
38499;SDS011;24269;51.894;4.622;2022-10-17T04:10:02;16.52;;;11.90;;
38499;SDS011;24269;51.894;4.622;2022-10-17T04:12:29;17.35;;;12.23;;
38499;SDS011;24269;51.894;4.622;2022-10-17T04:14:54;17.85;;;12.15;;
38499;SDS011;24269;51.894;4.622;2022-10-17T04:17:20;16.52;;;12.00;;
38499;SDS011;24269;51.894;4.622;2022-10-17T04:19:45;16.60;;;11.90;;
38499;SDS011;24269;51.894;4.622;2022-10-17T04:22:13;15.77;;;11.50;;
38499;SDS011;24269;51.894;4.622;2022-10-17T04:24:39;16.30;;;11.70;;
38499;SDS011;24269;51.894;4.622;2022-10-17T04:27:05;19.38;;;11.70;;
38499;SDS011;24269;51.894;4.622;2022-10-17T04:29:30;21.40;;;11.85;;
38499;SDS011;24269;51.894;4.622;2022-10-17T04:31:56;14.93;;;11.90;;
38499;SDS011;24269;51.894;4.622;2022-10-17T04:34:21;17.60;;;11.05;;
38499;SDS011;24269;51.894;4.622;2022-10-17T04:36:47;18.02;;;11.43;;
38499;SDS011;24269;51.894;4.622;2022-10-17T04:39:12;15.57;;;11.23;;
38499;SDS011;24269;51.894;4.622;2022-10-17T04:41:38;16.70;;;10.98;;
38499;SDS011;24269;51.894;4.622;2022-10-17T04:44:04;15.90;;;11.40;;
38499;SDS011;24269;51.894;4.622;2022-10-17T04:46:29;19.10;;;10.70;;
38499;SDS011;24269;51.894;4.622;2022-10-17T04:48:57;15.63;;;11.10;;
38499;SDS011;24269;51.894;4.622;2022-10-17T04:51:22;19.00;;;11.52;;
38499;SDS011;24269;51.894;4.622;2022-10-17T04:53:48;15.95;;;10.45;;
38499;SDS011;24269;51.894;4.622;2022-10-17T04:56:15;15.68;;;10.57;;
38499;SDS011;24269;51.894;4.622;2022-10-17T04:58:43;14.88;;;10.27;;
38499;SDS011;24269;51.894;4.622;2022-10-17T05:01:10;15.52;;;11.20;;
38499;SDS011;24269;51.894;4.622;2022-10-17T05:03:37;16.15;;;10.60;;
38499;SDS011;24269;51.894;4.622;2022-10-17T05:06:07;16.50;;;10.65;;
38499;SDS011;24269;51.894;4.622;2022-10-17T05:08:44;17.10;;;11.20;;
38499;SDS011;24269;51.894;4.622;2022-10-17T05:13:49;16.15;;;10.48;;
38499;SDS011;24269;51.894;4.622;2022-10-17T05:16:20;16.90;;;10.43;;
38499;SDS011;24269;51.894;4.622;2022-10-17T05:18:47;17.48;;;11.05;;
38499;SDS011;24269;51.894;4.622;2022-10-17T05:21:14;14.23;;;9.73;;
38499;SDS011;24269;51.894;4.622;2022-10-17T05:23:39;18.23;;;10.32;;
38499;SDS011;24269;51.894;4.622;2022-10-17T05:26:05;17.23;;;10.32;;
38499;SDS011;24269;51.894;4.622;2022-10-17T05:28:31;14.25;;;10.02;;
38499;SDS011;24269;51.894;4.622;2022-10-17T05:31:01;18.50;;;11.07;;
38499;SDS011;24269;51.894;4.622;2022-10-17T05:33:27;14.25;;;10.27;;
38499;SDS011;24269;51.894;4.622;2022-10-17T05:35:53;19.08;;;11.20;;
38499;SDS011;24269;51.894;4.622;2022-10-17T05:38:18;18.73;;;10.27;;
38499;SDS011;24269;51.894;4.622;2022-10-17T05:40:44;16.75;;;10.02;;
38499;SDS011;24269;51.894;4.622;2022-10-17T05:43:10;14.32;;;10.10;;
38499;SDS011;24269;51.894;4.622;2022-10-17T05:45:35;15.10;;;9.95;;
38499;SDS011;24269;51.894;4.622;2022-10-17T05:48:01;14.02;;;10.07;;
38499;SDS011;24269;51.894;4.622;2022-10-17T05:50:27;17.90;;;11.00;;
38499;SDS011;24269;51.894;4.622;2022-10-17T05:52:53;15.40;;;10.35;;
38499;SDS011;24269;51.894;4.622;2022-10-17T05:55:19;15.35;;;10.18;;
38499;SDS011;24269;51.894;4.622;2022-10-17T05:57:45;18.05;;;10.50;;
38499;SDS011;24269;51.894;4.622;2022-10-17T06:00:10;16.15;;;10.10;;
38499;SDS011;24269;51.894;4.622;2022-10-17T06:02:36;15.18;;;9.63;;
38499;SDS011;24269;51.894;4.622;2022-10-17T06:05:02;16.08;;;9.90;;
38499;SDS011;24269;51.894;4.622;2022-10-17T06:07:28;15.43;;;9.50;;
38499;SDS011;24269;51.894;4.622;2022-10-17T06:09:53;14.52;;;9.73;;
38499;SDS011;24269;51.894;4.622;2022-10-17T06:12:19;16.13;;;9.85;;
38499;SDS011;24269;51.894;4.622;2022-10-17T06:14:45;15.98;;;9.65;;
38499;SDS011;24269;51.894;4.622;2022-10-17T06:17:10;14.27;;;9.52;;
38499;SDS011;24269;51.894;4.622;2022-10-17T06:19:36;14.32;;;9.75;;
38499;SDS011;24269;51.894;4.622;2022-10-17T06:22:02;12.20;;;9.30;;
38499;SDS011;24269;51.894;4.622;2022-10-17T06:24:27;14.63;;;9.43;;
38499;SDS011;24269;51.894;4.622;2022-10-17T06:26:53;13.63;;;9.70;;
38499;SDS011;24269;51.894;4.622;2022-10-17T06:29:18;15.95;;;8.65;;
38499;SDS011;24269;51.894;4.622;2022-10-17T06:31:44;13.70;;;9.60;;
38499;SDS011;24269;51.894;4.622;2022-10-17T06:34:10;15.63;;;9.98;;
38499;SDS011;24269;51.894;4.622;2022-10-17T06:36:35;15.82;;;9.55;;
38499;SDS011;24269;51.894;4.622;2022-10-17T06:39:01;15.35;;;9.85;;
38499;SDS011;24269;51.894;4.622;2022-10-17T06:41:27;17.25;;;10.63;;
38499;SDS011;24269;51.894;4.622;2022-10-17T06:43:52;15.48;;;10.18;;
38499;SDS011;24269;51.894;4.622;2022-10-17T06:46:18;15.50;;;9.93;;
38499;SDS011;24269;51.894;4.622;2022-10-17T06:48:45;12.45;;;9.52;;
38499;SDS011;24269;51.894;4.622;2022-10-17T06:51:10;13.07;;;9.48;;
38499;SDS011;24269;51.894;4.622;2022-10-17T06:53:37;15.20;;;9.38;;
38499;SDS011;24269;51.894;4.622;2022-10-17T06:56:05;16.10;;;9.70;;
38499;SDS011;24269;51.894;4.622;2022-10-17T06:58:32;13.82;;;9.65;;
38499;SDS011;24269;51.894;4.622;2022-10-17T07:01:00;16.55;;;9.88;;
38499;SDS011;24269;51.894;4.622;2022-10-17T07:03:30;16.40;;;9.75;;
38499;SDS011;24269;51.894;4.622;2022-10-17T07:05:56;16.42;;;9.80;;
38499;SDS011;24269;51.894;4.622;2022-10-17T07:08:22;19.27;;;10.48;;
38499;SDS011;24269;51.894;4.622;2022-10-17T07:10:48;17.02;;;10.50;;
38499;SDS011;24269;51.894;4.622;2022-10-17T07:13:15;14.02;;;9.55;;
38499;SDS011;24269;51.894;4.622;2022-10-17T07:15:42;16.88;;;9.55;;
38499;SDS011;24269;51.894;4.622;2022-10-17T07:18:07;18.25;;;9.57;;
38499;SDS011;24269;51.894;4.622;2022-10-17T07:20:33;19.80;;;10.70;;
38499;SDS011;24269;51.894;4.622;2022-10-17T07:22:59;17.52;;;10.45;;
38499;SDS011;24269;51.894;4.622;2022-10-17T07:25:24;15.90;;;10.38;;
38499;SDS011;24269;51.894;4.622;2022-10-17T07:27:51;17.02;;;10.23;;
38499;SDS011;24269;51.894;4.622;2022-10-17T07:30:17;17.33;;;10.98;;
38499;SDS011;24269;51.894;4.622;2022-10-17T07:32:43;21.23;;;10.70;;
38499;SDS011;24269;51.894;4.622;2022-10-17T07:35:09;19.33;;;11.73;;
38499;SDS011;24269;51.894;4.622;2022-10-17T07:37:36;17.08;;;11.55;;
38499;SDS011;24269;51.894;4.622;2022-10-17T07:40:02;18.15;;;11.57;;
38499;SDS011;24269;51.894;4.622;2022-10-17T07:42:30;20.08;;;11.63;;
38499;SDS011;24269;51.894;4.622;2022-10-17T07:44:56;19.25;;;11.75;;
38499;SDS011;24269;51.894;4.622;2022-10-17T07:47:22;16.77;;;11.43;;
38499;SDS011;24269;51.894;4.622;2022-10-17T07:49:48;19.45;;;12.15;;
38499;SDS011;24269;51.894;4.622;2022-10-17T07:52:14;19.05;;;12.10;;
38499;SDS011;24269;51.894;4.622;2022-10-17T07:54:40;17.15;;;11.60;;
38499;SDS011;24269;51.894;4.622;2022-10-17T07:57:06;21.35;;;12.32;;
38499;SDS011;24269;51.894;4.622;2022-10-17T07:59:33;18.77;;;13.00;;
38499;SDS011;24269;51.894;4.622;2022-10-17T08:02:00;21.70;;;12.93;;
38499;SDS011;24269;51.894;4.622;2022-10-17T08:04:26;18.88;;;12.95;;
38499;SDS011;24269;51.894;4.622;2022-10-17T08:06:53;20.73;;;12.70;;
38499;SDS011;24269;51.894;4.622;2022-10-17T08:09:18;17.25;;;12.02;;
38499;SDS011;24269;51.894;4.622;2022-10-17T08:11:44;23.67;;;12.82;;
38499;SDS011;24269;51.894;4.622;2022-10-17T08:14:13;22.25;;;12.50;;
38499;SDS011;24269;51.894;4.622;2022-10-17T08:16:40;19.35;;;13.07;;
38499;SDS011;24269;51.894;4.622;2022-10-17T08:19:06;22.00;;;12.23;;
38499;SDS011;24269;51.894;4.622;2022-10-17T08:21:37;20.55;;;12.63;;
38499;SDS011;24269;51.894;4.622;2022-10-17T08:24:03;22.10;;;12.57;;
38499;SDS011;24269;51.894;4.622;2022-10-17T08:26:29;21.30;;;12.38;;
38499;SDS011;24269;51.894;4.622;2022-10-17T08:28:55;22.60;;;12.23;;
38499;SDS011;24269;51.894;4.622;2022-10-17T08:31:21;21.65;;;12.68;;
38499;SDS011;24269;51.894;4.622;2022-10-17T08:33:48;19.02;;;11.80;;
38499;SDS011;24269;51.894;4.622;2022-10-17T08:36:16;21.92;;;12.40;;
38499;SDS011;24269;51.894;4.622;2022-10-17T08:38:43;19.75;;;12.23;;
38499;SDS011;24269;51.894;4.622;2022-10-17T08:46:47;17.98;;;11.48;;
38499;SDS011;24269;51.894;4.622;2022-10-17T08:52:05;19.92;;;12.18;;
38499;SDS011;24269;51.894;4.622;2022-10-17T08:54:42;19.65;;;12.15;;
38499;SDS011;24269;51.894;4.622;2022-10-17T08:57:13;20.38;;;12.13;;
38499;SDS011;24269;51.894;4.622;2022-10-17T08:59:41;19.13;;;11.82;;
38499;SDS011;24269;51.894;4.622;2022-10-17T09:15:59;19.30;;;11.52;;
38499;SDS011;24269;51.894;4.622;2022-10-17T09:18:37;20.67;;;12.05;;
38499;SDS011;24269;51.894;4.622;2022-10-17T09:21:25;19.73;;;11.88;;
38499;SDS011;24269;51.894;4.622;2022-10-17T09:24:01;18.08;;;11.35;;
38499;SDS011;24269;51.894;4.622;2022-10-17T09:26:30;16.58;;;11.43;;
38499;SDS011;24269;51.894;4.622;2022-10-17T09:28:56;18.48;;;11.63;;
38499;SDS011;24269;51.894;4.622;2022-10-17T09:33:56;17.25;;;11.25;;
38499;SDS011;24269;51.894;4.622;2022-10-17T09:36:26;18.15;;;11.45;;
38499;SDS011;24269;51.894;4.622;2022-10-17T09:38:55;19.45;;;10.90;;
38499;SDS011;24269;51.894;4.622;2022-10-17T09:41:41;16.33;;;10.43;;
38499;SDS011;24269;51.894;4.622;2022-10-17T09:47:09;18.92;;;10.30;;
38499;SDS011;24269;51.894;4.622;2022-10-17T09:49:49;15.73;;;10.43;;
38499;SDS011;24269;51.894;4.622;2022-10-17T09:52:24;14.57;;;9.88;;
38499;SDS011;24269;51.894;4.622;2022-10-17T09:55:02;17.50;;;9.52;;
38499;SDS011;24269;51.894;4.622;2022-10-17T10:03:32;14.27;;;9.40;;
38499;SDS011;24269;51.894;4.622;2022-10-17T10:08:25;18.80;;;10.27;;
38499;SDS011;24269;51.894;4.622;2022-10-17T10:11:04;16.10;;;10.48;;
38499;SDS011;24269;51.894;4.622;2022-10-17T10:13:32;15.98;;;10.85;;
38499;SDS011;24269;51.894;4.622;2022-10-17T10:16:13;18.63;;;11.60;;
38499;SDS011;24269;51.894;4.622;2022-10-17T10:18:45;16.90;;;10.98;;
38499;SDS011;24269;51.894;4.622;2022-10-17T10:23:43;19.00;;;12.10;;
38499;SDS011;24269;51.894;4.622;2022-10-17T10:26:17;17.25;;;12.80;;
38499;SDS011;24269;51.894;4.622;2022-10-17T10:28:50;18.70;;;12.98;;
38499;SDS011;24269;51.894;4.622;2022-10-17T10:31:23;19.73;;;13.00;;
38499;SDS011;24269;51.894;4.622;2022-10-17T10:33:50;16.25;;;12.15;;
38499;SDS011;24269;51.894;4.622;2022-10-17T10:36:16;19.60;;;12.95;;
38499;SDS011;24269;51.894;4.622;2022-10-17T10:38:49;18.38;;;11.73;;
38499;SDS011;24269;51.894;4.622;2022-10-17T10:41:18;17.05;;;11.30;;
38499;SDS011;24269;51.894;4.622;2022-10-17T10:43:45;18.67;;;12.02;;
38499;SDS011;24269;51.894;4.622;2022-10-17T10:51:45;14.52;;;10.40;;
38499;SDS011;24269;51.894;4.622;2022-10-17T10:56:53;11.10;;;7.20;;
38499;SDS011;24269;51.894;4.622;2022-10-17T10:59:23;15.55;;;7.50;;
38499;SDS011;24269;51.894;4.622;2022-10-17T11:05:09;11.85;;;6.85;;
38499;SDS011;24269;51.894;4.622;2022-10-17T11:07:51;11.73;;;7.35;;
38499;SDS011;24269;51.894;4.622;2022-10-17T11:10:30;10.50;;;7.32;;
38499;SDS011;24269;51.894;4.622;2022-10-17T11:13:21;11.00;;;7.13;;
38499;SDS011;24269;51.894;4.622;2022-10-17T11:22:04;8.05;;;4.97;;
38499;SDS011;24269;51.894;4.622;2022-10-17T11:24:26;9.40;;;5.10;;
38499;SDS011;24269;51.894;4.622;2022-10-17T11:27:07;8.55;;;4.70;;
38499;SDS011;24269;51.894;4.622;2022-10-17T11:29:34;6.18;;;4.22;;
38499;SDS011;24269;51.894;4.622;2022-10-17T11:32:19;8.05;;;4.72;;
38499;SDS011;24269;51.894;4.622;2022-10-17T11:34:52;7.55;;;4.55;;
38499;SDS011;24269;51.894;4.622;2022-10-17T11:37:29;7.70;;;4.38;;
38499;SDS011;24269;51.894;4.622;2022-10-17T11:40:00;7.88;;;4.50;;
38499;SDS011;24269;51.894;4.622;2022-10-17T11:42:33;6.53;;;4.43;;
38499;SDS011;24269;51.894;4.622;2022-10-17T11:45:10;7.65;;;4.75;;
38499;SDS011;24269;51.894;4.622;2022-10-17T11:47:49;8.35;;;4.68;;
38499;SDS011;24269;51.894;4.622;2022-10-17T11:50:36;8.07;;;4.82;;
38499;SDS011;24269;51.894;4.622;2022-10-17T11:53:15;8.90;;;5.40;;
38499;SDS011;24269;51.894;4.622;2022-10-17T11:55:44;8.00;;;6.07;;
38499;SDS011;24269;51.894;4.622;2022-10-17T12:11:50;11.35;;;8.20;;
38499;SDS011;24269;51.894;4.622;2022-10-17T12:17:24;10.93;;;8.60;;
38499;SDS011;24269;51.894;4.622;2022-10-17T12:19:51;12.32;;;9.38;;
38499;SDS011;24269;51.894;4.622;2022-10-17T12:22:19;14.27;;;9.05;;
38499;SDS011;24269;51.894;4.622;2022-10-17T12:25:48;12.82;;;8.90;;
38499;SDS011;24269;51.894;4.622;2022-10-17T12:27:43;12.05;;;9.25;;
38499;SDS011;24269;51.894;4.622;2022-10-17T12:35:28;13.80;;;10.50;;
38499;SDS011;24269;51.894;4.622;2022-10-17T12:37:59;15.23;;;10.57;;
38499;SDS011;24269;51.894;4.622;2022-10-17T12:43:02;13.57;;;10.60;;
38499;SDS011;24269;51.894;4.622;2022-10-17T12:45:53;11.23;;;9.93;;
38499;SDS011;24269;51.894;4.622;2022-10-17T12:56:14;14.75;;;10.18;;
38499;SDS011;24269;51.894;4.622;2022-10-17T12:58:53;12.95;;;9.52;;
38499;SDS011;24269;51.894;4.622;2022-10-17T13:01:27;13.18;;;9.65;;
38499;SDS011;24269;51.894;4.622;2022-10-17T13:03:58;16.38;;;10.05;;
38499;SDS011;24269;51.894;4.622;2022-10-17T13:06:31;13.85;;;9.90;;
38499;SDS011;24269;51.894;4.622;2022-10-17T13:09:04;13.25;;;9.40;;
38499;SDS011;24269;51.894;4.622;2022-10-17T13:11:35;11.77;;;9.50;;
38499;SDS011;24269;51.894;4.622;2022-10-17T13:14:04;15.18;;;9.70;;
38499;SDS011;24269;51.894;4.622;2022-10-17T13:16:37;14.70;;;9.60;;
38499;SDS011;24269;51.894;4.622;2022-10-17T13:19:11;14.88;;;10.45;;
38499;SDS011;24269;51.894;4.622;2022-10-17T13:21:48;13.75;;;9.93;;
38499;SDS011;24269;51.894;4.622;2022-10-17T13:24:21;12.98;;;9.73;;
38499;SDS011;24269;51.894;4.622;2022-10-17T13:26:54;12.80;;;9.23;;
38499;SDS011;24269;51.894;4.622;2022-10-17T13:29:19;13.60;;;8.48;;
38499;SDS011;24269;51.894;4.622;2022-10-17T13:31:51;12.95;;;9.38;;
38499;SDS011;24269;51.894;4.622;2022-10-17T13:34:20;13.45;;;10.15;;
38499;SDS011;24269;51.894;4.622;2022-10-17T13:36:52;14.25;;;9.43;;
38499;SDS011;24269;51.894;4.622;2022-10-17T13:39:24;12.30;;;9.05;;
38499;SDS011;24269;51.894;4.622;2022-10-17T13:41:52;13.88;;;8.80;;
38499;SDS011;24269;51.894;4.622;2022-10-17T13:44:20;11.88;;;7.72;;
38499;SDS011;24269;51.894;4.622;2022-10-17T13:46:51;10.70;;;7.72;;
38499;SDS011;24269;51.894;4.622;2022-10-17T13:49:22;12.32;;;7.43;;
38499;SDS011;24269;51.894;4.622;2022-10-17T13:51:49;11.80;;;7.32;;
38499;SDS011;24269;51.894;4.622;2022-10-17T13:54:38;9.57;;;6.55;;
38499;SDS011;24269;51.894;4.622;2022-10-17T13:57:04;11.32;;;6.57;;
38499;SDS011;24269;51.894;4.622;2022-10-17T13:59:41;11.02;;;6.10;;
38499;SDS011;24269;51.894;4.622;2022-10-17T14:02:33;7.07;;;5.00;;
38499;SDS011;24269;51.894;4.622;2022-10-17T14:05:00;11.55;;;5.25;;
38499;SDS011;24269;51.894;4.622;2022-10-17T14:07:38;8.48;;;4.85;;
38499;SDS011;24269;51.894;4.622;2022-10-17T14:10:20;7.80;;;4.25;;
38499;SDS011;24269;51.894;4.622;2022-10-17T14:12:46;8.55;;;4.18;;
38499;SDS011;24269;51.894;4.622;2022-10-17T14:15:12;6.88;;;4.00;;
38499;SDS011;24269;51.894;4.622;2022-10-17T14:17:39;9.02;;;3.80;;
38499;SDS011;24269;51.894;4.622;2022-10-17T14:20:06;7.40;;;3.50;;
38499;SDS011;24269;51.894;4.622;2022-10-17T14:22:41;10.07;;;3.00;;
38499;SDS011;24269;51.894;4.622;2022-10-17T14:25:26;6.55;;;2.50;;
38499;SDS011;24269;51.894;4.622;2022-10-17T14:27:55;7.50;;;3.20;;
38499;SDS011;24269;51.894;4.622;2022-10-17T14:30:41;4.72;;;2.65;;
38499;SDS011;24269;51.894;4.622;2022-10-17T14:33:11;6.75;;;2.80;;
38499;SDS011;24269;51.894;4.622;2022-10-17T14:35:47;8.32;;;2.85;;
38499;SDS011;24269;51.894;4.622;2022-10-17T14:38:17;6.93;;;3.10;;
38499;SDS011;24269;51.894;4.622;2022-10-17T14:40:48;7.95;;;3.17;;
38499;SDS011;24269;51.894;4.622;2022-10-17T14:43:18;6.68;;;3.13;;
38499;SDS011;24269;51.894;4.622;2022-10-17T14:45:46;8.23;;;2.97;;
38499;SDS011;24269;51.894;4.622;2022-10-17T14:48:14;7.28;;;2.75;;
38499;SDS011;24269;51.894;4.622;2022-10-17T14:53:42;7.00;;;2.90;;
38499;SDS011;24269;51.894;4.622;2022-10-17T14:56:23;7.47;;;3.10;;
38499;SDS011;24269;51.894;4.622;2022-10-17T14:58:51;5.82;;;2.20;;
38499;SDS011;24269;51.894;4.622;2022-10-17T15:01:16;8.73;;;2.72;;
38499;SDS011;24269;51.894;4.622;2022-10-17T15:03:43;7.80;;;2.40;;
38499;SDS011;24269;51.894;4.622;2022-10-17T15:06:26;6.97;;;2.40;;
38499;SDS011;24269;51.894;4.622;2022-10-17T15:08:54;6.35;;;2.00;;
38499;SDS011;24269;51.894;4.622;2022-10-17T15:11:19;6.45;;;2.50;;
38499;SDS011;24269;51.894;4.622;2022-10-17T15:13:45;5.85;;;2.10;;
38499;SDS011;24269;51.894;4.622;2022-10-17T15:16:23;7.35;;;2.72;;
38499;SDS011;24269;51.894;4.622;2022-10-17T15:18:51;7.22;;;2.20;;
38499;SDS011;24269;51.894;4.622;2022-10-17T15:21:21;6.28;;;2.53;;
38499;SDS011;24269;51.894;4.622;2022-10-17T15:23:48;6.90;;;2.60;;
38499;SDS011;24269;51.894;4.622;2022-10-17T15:26:14;7.30;;;2.72;;
38499;SDS011;24269;51.894;4.622;2022-10-17T15:28:41;6.32;;;2.50;;
38499;SDS011;24269;51.894;4.622;2022-10-17T15:31:08;6.00;;;2.47;;
38499;SDS011;24269;51.894;4.622;2022-10-17T15:33:36;6.80;;;2.85;;
38499;SDS011;24269;51.894;4.622;2022-10-17T15:36:01;7.88;;;2.90;;
38499;SDS011;24269;51.894;4.622;2022-10-17T15:38:27;6.43;;;2.40;;
38499;SDS011;24269;51.894;4.622;2022-10-17T15:40:52;6.95;;;2.65;;
38499;SDS011;24269;51.894;4.622;2022-10-17T15:43:18;6.13;;;2.65;;
38499;SDS011;24269;51.894;4.622;2022-10-17T15:45:44;6.30;;;2.38;;
38499;SDS011;24269;51.894;4.622;2022-10-17T15:48:13;7.13;;;2.80;;
38499;SDS011;24269;51.894;4.622;2022-10-17T15:50:43;7.57;;;2.83;;
38499;SDS011;24269;51.894;4.622;2022-10-17T15:53:12;9.50;;;2.92;;
38499;SDS011;24269;51.894;4.622;2022-10-17T15:55:38;7.75;;;2.88;;
38499;SDS011;24269;51.894;4.622;2022-10-17T15:58:04;9.25;;;3.47;;
38499;SDS011;24269;51.894;4.622;2022-10-17T16:00:30;4.90;;;2.58;;
38499;SDS011;24269;51.894;4.622;2022-10-17T16:02:56;6.45;;;2.72;;
38499;SDS011;24269;51.894;4.622;2022-10-17T16:05:22;7.15;;;2.70;;
38499;SDS011;24269;51.894;4.622;2022-10-17T16:07:50;6.03;;;2.47;;
38499;SDS011;24269;51.894;4.622;2022-10-17T16:10:16;6.68;;;2.60;;
38499;SDS011;24269;51.894;4.622;2022-10-17T16:12:43;9.25;;;3.05;;
38499;SDS011;24269;51.894;4.622;2022-10-17T16:15:14;10.50;;;2.50;;
38499;SDS011;24269;51.894;4.622;2022-10-17T16:17:41;5.40;;;2.33;;
38499;SDS011;24269;51.894;4.622;2022-10-17T16:20:08;5.60;;;2.33;;
38499;SDS011;24269;51.894;4.622;2022-10-17T16:22:34;8.13;;;2.50;;
38499;SDS011;24269;51.894;4.622;2022-10-17T16:25:01;8.75;;;2.70;;
38499;SDS011;24269;51.894;4.622;2022-10-17T16:27:36;6.70;;;2.70;;
38499;SDS011;24269;51.894;4.622;2022-10-17T16:30:03;7.63;;;3.10;;
38499;SDS011;24269;51.894;4.622;2022-10-17T16:32:30;6.07;;;2.65;;
38499;SDS011;24269;51.894;4.622;2022-10-17T16:34:56;6.70;;;2.40;;
38499;SDS011;24269;51.894;4.622;2022-10-17T16:37:23;6.30;;;2.55;;
38499;SDS011;24269;51.894;4.622;2022-10-17T16:39:50;10.18;;;2.45;;
38499;SDS011;24269;51.894;4.622;2022-10-17T16:42:17;8.73;;;2.60;;
38499;SDS011;24269;51.894;4.622;2022-10-17T16:44:47;7.28;;;2.20;;